Time,TemperatureF,DewpointF,PressureIn,WindDirection,WindDirectionDegrees,WindSpeedMPH,WindSpeedGustMPH,Humidity,HourlyPrecipIn,Conditions,Clouds,dailyrainin,SolarRadiationWatts/m^2,SoftwareType,DateUTC
2013-12-26 00:03:00,19.0,10.0,-100.00,South,180,4.0,10.0,68,0.00,,,0.00,0.000000,,2013-12-26 05:03:00,
2013-12-26 00:43:00,19.0,10.0,-100.00,South,177,4.0,9.0,68,0.00,,,0.00,0.000000,,2013-12-26 05:43:00,
2013-12-26 00:53:00,19.0,10.0,-100.00,South,177,4.0,9.0,68,0.00,,,0.00,0.000000,,2013-12-26 05:53:00,
2013-12-26 01:02:00,19.0,10.0,-100.00,South,177,4.0,9.0,68,0.00,,,0.00,0.000000,,2013-12-26 06:02:00,
2013-12-26 01:42:00,19.0,12.0,-100.00,South,171,5.0,7.0,73,0.00,,,0.00,0.000000,,2013-12-26 06:42:00,
2013-12-26 01:52:00,19.0,12.0,-100.00,South,171,5.0,7.0,73,0.00,,,0.00,0.000000,,2013-12-26 06:52:00,
2013-12-26 02:01:00,19.0,12.0,-100.00,South,171,5.0,7.0,73,0.00,,,0.00,0.000000,,2013-12-26 07:01:00,
2013-12-26 02:42:00,18.0,15.0,-100.00,South,180,5.0,8.0,88,0.00,,,0.00,0.000000,,2013-12-26 07:42:00,
2013-12-26 02:53:00,18.0,15.0,-100.00,South,180,5.0,8.0,88,0.00,,,0.00,0.000000,,2013-12-26 07:53:00,
2013-12-26 03:02:00,18.0,15.0,-100.00,South,180,5.0,8.0,88,0.00,,,0.00,0.000000,,2013-12-26 08:02:00,
2013-12-26 03:42:00,19.0,17.0,-100.00,South,174,5.0,10.0,92,0.00,,,0.00,0.000000,,2013-12-26 08:42:00,
2013-12-26 03:53:00,19.0,17.0,-100.00,South,174,5.0,10.0,92,0.00,,,0.00,0.000000,,2013-12-26 08:53:00,
2013-12-26 04:02:00,19.0,17.0,-100.00,South,174,5.0,10.0,92,0.00,,,0.00,0.000000,,2013-12-26 09:02:00,
2013-12-26 04:43:00,19.0,17.0,-100.00,South,182,6.0,11.0,93,0.00,,,0.00,0.000000,,2013-12-26 09:43:00,
2013-12-26 04:53:00,19.0,17.0,-100.00,South,182,6.0,11.0,93,0.00,,,0.00,0.000000,,2013-12-26 09:53:00,
2013-12-26 05:03:00,19.0,17.0,-100.00,South,182,6.0,11.0,93,0.00,,,0.00,0.000000,,2013-12-26 10:03:00,
2013-12-26 05:43:00,19.0,17.0,-100.00,South,189,6.0,12.0,92,0.00,,,0.00,0.000000,,2013-12-26 10:43:00,
2013-12-26 05:53:00,19.0,17.0,-100.00,South,189,6.0,12.0,92,0.00,,,0.00,0.000000,,2013-12-26 10:53:00,
2013-12-26 06:02:00,19.0,17.0,-100.00,South,189,6.0,12.0,92,0.00,,,0.00,0.000000,,2013-12-26 11:02:00,
2013-12-26 06:43:00,19.0,17.0,-100.00,SSW,200,7.0,14.0,93,0.00,,,0.00,0.000000,,2013-12-26 11:43:00,
2013-12-26 06:52:00,19.0,17.0,-100.00,SSW,200,7.0,14.0,93,0.00,,,0.00,0.000000,,2013-12-26 11:52:00,
2013-12-26 07:02:00,19.0,17.0,-100.00,SSW,200,7.0,14.0,93,0.00,,,0.00,0.000000,,2013-12-26 12:02:00,
2013-12-26 07:42:00,20.0,18.0,-100.00,SSW,195,7.0,13.0,93,0.00,,,0.00,0.000000,,2013-12-26 12:42:00,
2013-12-26 07:53:00,20.0,18.0,-100.00,SSW,195,7.0,13.0,93,0.00,,,0.00,0.000000,,2013-12-26 12:53:00,
2013-12-26 08:02:00,20.0,18.0,-100.00,SSW,195,7.0,13.0,93,0.00,,,0.00,0.000000,,2013-12-26 13:02:00,
2013-12-26 08:42:00,20.0,18.0,-100.00,SSW,203,6.0,11.0,93,0.00,,,0.00,4.000000,,2013-12-26 13:42:00,
2013-12-26 08:53:00,20.0,18.0,-100.00,SSW,203,6.0,11.0,93,0.00,,,0.00,4.000000,,2013-12-26 13:53:00,
2013-12-26 09:02:00,20.0,18.0,-100.00,SSW,203,6.0,11.0,93,0.00,,,0.00,4.000000,,2013-12-26 14:02:00,
2013-12-26 09:42:00,23.0,22.0,-100.00,SW,234,8.0,14.0,94,0.00,,,-99.99,16.000000,,2013-12-26 14:42:00,
2013-12-26 09:52:00,23.0,22.0,-100.00,SW,234,8.0,14.0,94,0.00,,,-99.99,16.000000,,2013-12-26 14:52:00,
2013-12-26 10:02:00,23.0,22.0,-100.00,SW,234,8.0,14.0,94,0.00,,,-99.99,16.000000,,2013-12-26 15:02:00,
2013-12-26 10:43:00,26.0,25.0,-100.00,WSW,255,10.0,19.0,94,0.00,,,0.00,52.000000,,2013-12-26 15:43:00,
2013-12-26 10:54:00,26.0,25.0,-100.00,WSW,255,10.0,19.0,94,0.00,,,0.00,52.000000,,2013-12-26 15:54:00,
2013-12-26 11:03:00,26.0,25.0,-100.00,WSW,255,10.0,19.0,94,0.00,,,0.00,52.000000,,2013-12-26 16:03:00,
2013-12-26 11:42:00,27.0,25.0,-100.00,West,268,9.0,18.0,93,0.00,,,0.00,76.000000,,2013-12-26 16:42:00,
2013-12-26 11:53:00,27.0,25.0,-100.00,West,268,9.0,18.0,93,0.00,,,0.00,76.000000,,2013-12-26 16:53:00,
2013-12-26 12:02:00,27.0,25.0,-100.00,West,268,9.0,18.0,93,0.00,,,0.00,76.000000,,2013-12-26 17:02:00,
2013-12-26 12:43:00,28.0,25.0,-100.00,West,270,11.0,19.0,88,0.00,,,0.00,129.000000,,2013-12-26 17:43:00,
2013-12-26 12:52:00,28.0,25.0,-100.00,West,270,11.0,19.0,88,0.00,,,0.00,129.000000,,2013-12-26 17:52:00,
2013-12-26 13:02:00,28.0,25.0,-100.00,West,270,11.0,19.0,88,0.00,,,0.00,129.000000,,2013-12-26 18:02:00,
2013-12-26 13:42:00,28.0,23.0,-100.00,West,272,11.0,26.0,82,0.00,,,0.00,177.000000,,2013-12-26 18:42:00,
2013-12-26 13:52:00,28.0,23.0,-100.00,West,272,11.0,26.0,82,0.00,,,0.00,177.000000,,2013-12-26 18:52:00,
2013-12-26 14:02:00,28.0,23.0,-100.00,West,272,11.0,26.0,82,0.00,,,0.00,177.000000,,2013-12-26 19:02:00,
2013-12-26 14:42:00,26.0,19.0,-100.00,WNW,302,7.0,19.0,76,0.00,,,0.00,163.000000,,2013-12-26 19:42:00,
2013-12-26 14:52:00,26.0,19.0,-100.00,WNW,302,7.0,19.0,76,0.00,,,0.00,163.000000,,2013-12-26 19:52:00,
2013-12-26 15:02:00,26.0,19.0,-100.00,WNW,302,7.0,19.0,76,0.00,,,0.00,163.000000,,2013-12-26 20:02:00,
2013-12-26 15:42:00,26.0,18.0,-100.00,West,281,8.0,19.0,71,0.00,,,0.00,157.000000,,2013-12-26 20:42:00,
2013-12-26 15:52:00,26.0,18.0,-100.00,West,281,8.0,19.0,71,0.00,,,0.00,157.000000,,2013-12-26 20:52:00,
2013-12-26 16:02:00,26.0,18.0,-100.00,West,281,8.0,19.0,71,0.00,,,0.00,157.000000,,2013-12-26 21:02:00,
2013-12-26 16:43:00,26.0,16.0,-100.00,West,279,8.0,19.0,64,0.00,,,0.00,68.000000,,2013-12-26 21:43:00,
2013-12-26 16:53:00,26.0,16.0,-100.00,West,279,8.0,19.0,64,0.00,,,0.00,68.000000,,2013-12-26 21:53:00,
2013-12-26 17:03:00,26.0,16.0,-100.00,West,279,8.0,19.0,64,0.00,,,0.00,68.000000,,2013-12-26 22:03:00,
2013-12-26 17:43:00,24.0,14.0,-100.00,WNW,301,4.0,19.0,65,0.00,,,0.00,13.000000,,2013-12-26 22:43:00,
2013-12-26 17:52:00,24.0,14.0,-100.00,WNW,301,4.0,19.0,65,0.00,,,0.00,13.000000,,2013-12-26 22:52:00,
2013-12-26 18:03:00,24.0,14.0,-100.00,WNW,301,4.0,19.0,65,0.00,,,0.00,13.000000,,2013-12-26 23:03:00,
2013-12-26 18:42:00,23.0,15.0,-100.00,WNW,298,3.0,9.0,70,0.00,,,0.00,0.000000,,2013-12-26 23:42:00,
2013-12-26 18:53:00,23.0,15.0,-100.00,WNW,298,3.0,9.0,70,0.00,,,0.00,0.000000,,2013-12-26 23:53:00,
2013-12-26 19:02:00,23.0,15.0,-100.00,WNW,298,3.0,9.0,70,0.00,,,0.00,0.000000,,2013-12-27 00:02:00,
2013-12-26 19:42:00,23.0,15.0,-100.00,NW,305,2.0,7.0,72,0.00,,,0.00,0.000000,,2013-12-27 00:42:00,
2013-12-26 19:52:00,23.0,15.0,-100.00,NW,305,2.0,7.0,72,0.00,,,0.00,0.000000,,2013-12-27 00:52:00,
2013-12-26 20:02:00,23.0,15.0,-100.00,NW,305,2.0,7.0,72,0.00,,,0.00,0.000000,,2013-12-27 01:02:00,
2013-12-26 20:42:00,22.0,16.0,-100.00,NW,316,1.0,6.0,77,0.00,,,0.00,0.000000,,2013-12-27 01:42:00,
2013-12-26 20:52:00,22.0,16.0,-100.00,NW,316,1.0,6.0,77,0.00,,,0.00,0.000000,,2013-12-27 01:52:00,
2013-12-26 21:01:00,22.0,16.0,-100.00,NW,316,1.0,6.0,77,0.00,,,0.00,0.000000,,2013-12-27 02:01:00,
2013-12-26 21:42:00,23.0,17.0,-100.00,NW,311,4.0,11.0,78,0.00,,,0.00,0.000000,,2013-12-27 02:42:00,
2013-12-26 21:52:00,23.0,17.0,-100.00,NW,311,4.0,11.0,78,0.00,,,0.00,0.000000,,2013-12-27 02:52:00,
2013-12-26 22:02:00,23.0,17.0,-100.00,NW,311,4.0,11.0,78,0.00,,,0.00,0.000000,,2013-12-27 03:02:00,
2013-12-26 22:43:00,22.0,16.0,-100.00,WNW,303,5.0,15.0,78,0.00,,,0.00,0.000000,,2013-12-27 03:43:00,
2013-12-26 22:53:00,22.0,16.0,-100.00,WNW,303,5.0,15.0,78,0.00,,,0.00,0.000000,,2013-12-27 03:53:00,
2013-12-26 23:03:00,22.0,16.0,-100.00,WNW,303,5.0,15.0,78,0.00,,,0.00,0.000000,,2013-12-27 04:03:00,
2013-12-26 23:43:00,20.0,14.0,-100.00,WNW,297,6.0,14.0,78,0.00,,,0.00,0.000000,,2013-12-27 04:43:00,
2013-12-26 23:53:00,20.0,14.0,-100.00,WNW,297,6.0,14.0,78,0.00,,,0.00,0.000000,,2013-12-27 04:53:00,